GIA009 WAHI-WADD
Flight info
| Callsign | GIA009 |
|---|---|
| Flight time | 1h 0m |
| Altitude | 35000 |
| Route | SO W17N PURWO DCT BA T3 MOVMO |
| Aircraft | B738/M-SDE2E3FGHIRWXY/LB1 |
Departure
| Time | 2026-04-21 13:49 |
|---|---|
| Airport | Yogyakarta International Airport (WAHI) |
Arrival
| Time | 2026-04-21 14:50 |
|---|---|
| Airport | Denpasar I Gusti Ngurah Rai International Airport (WADD) |
| Time | Latitude | Longitude | Altitude | Speed | Heading |
|---|---|---|---|---|---|
| 2026-04-21 13:49 | -7.93173 | 110.10150 | 18914 ft | 338 kts | 42° |
| 2026-04-21 13:49 | -7.91395 | 110.11724 | 19418 ft | 340 kts | 42° |
| 2026-04-21 13:50 | -7.89602 | 110.13310 | 19914 ft | 344 kts | 42° |
| 2026-04-21 13:50 | -7.87794 | 110.14909 | 20401 ft | 347 kts | 42° |
| 2026-04-21 13:50 | -7.85971 | 110.16520 | 20893 ft | 350 kts | 42° |
| 2026-04-21 13:50 | -7.84131 | 110.18146 | 21391 ft | 353 kts | 42° |
| 2026-04-21 13:51 | -7.82276 | 110.19785 | 21872 ft | 356 kts | 41° |
| 2026-04-21 13:51 | -7.80585 | 110.21567 | 22307 ft | 359 kts | 58° |
| 2026-04-21 13:51 | -7.79596 | 110.23868 | 22758 ft | 360 kts | 78° |
| 2026-04-21 13:51 | -7.79439 | 110.26389 | 23222 ft | 362 kts | 95° |
| 2026-04-21 13:52 | -7.79712 | 110.28925 | 23651 ft | 365 kts | 97° |
| 2026-04-21 13:52 | -7.79943 | 110.31493 | 23843 ft | 367 kts | 90° |
| 2026-04-21 13:52 | -7.79730 | 110.34041 | 23883 ft | 362 kts | 82° |
| 2026-04-21 13:52 | -7.79358 | 110.36586 | 23891 ft | 374 kts | 82° |
| 2026-04-21 13:53 | -7.78981 | 110.39231 | 23898 ft | 389 kts | 82° |
| 2026-04-21 13:53 | -7.78404 | 110.41910 | 23887 ft | 403 kts | 71° |
| 2026-04-21 13:53 | -7.77239 | 110.44561 | 23899 ft | 415 kts | 60° |
| 2026-04-21 13:53 | -7.75572 | 110.46922 | 23892 ft | 424 kts | 50° |
| 2026-04-21 13:54 | -7.73621 | 110.49180 | 23890 ft | 428 kts | 48° |
| 2026-04-21 13:54 | -7.71627 | 110.51402 | 23878 ft | 426 kts | 48° |
| 2026-04-21 13:54 | -7.69656 | 110.53635 | 23924 ft | 428 kts | 49° |
| 2026-04-21 13:54 | -7.67686 | 110.55889 | 24287 ft | 428 kts | 49° |
| 2026-04-21 13:55 | -7.65719 | 110.58143 | 24652 ft | 428 kts | 49° |
| 2026-04-21 13:55 | -7.63750 | 110.60396 | 24944 ft | 430 kts | 49° |
| 2026-04-21 13:55 | -7.61764 | 110.62664 | 25204 ft | 432 kts | 49° |
| 2026-04-21 13:55 | -7.59770 | 110.64938 | 25495 ft | 434 kts | 48° |
| 2026-04-21 13:56 | -7.57767 | 110.67219 | 25794 ft | 435 kts | 48° |
| 2026-04-21 13:56 | -7.55751 | 110.69516 | 26073 ft | 437 kts | 48° |
| 2026-04-21 13:56 | -7.53707 | 110.71792 | 26338 ft | 439 kts | 43° |
| 2026-04-21 13:56 | -7.51234 | 110.73596 | 26583 ft | 440 kts | 26° |
| 2026-04-21 13:57 | -7.48370 | 110.74665 | 26910 ft | 440 kts | 12° |
| 2026-04-21 13:57 | -7.45358 | 110.74962 | 27172 ft | 442 kts | 1° |
| 2026-04-21 13:57 | -7.42301 | 110.74966 | 27763 ft | 433 kts | 360° |
| 2026-04-21 13:57 | -7.39324 | 110.74949 | 28489 ft | 423 kts | 360° |
| 2026-04-21 13:58 | -7.36398 | 110.74952 | 29233 ft | 413 kts | 0° |
| 2026-04-21 13:58 | -7.33553 | 110.74978 | 29986 ft | 404 kts | 1° |
| 2026-04-21 13:58 | -7.30780 | 110.75020 | 30637 ft | 394 kts | 1° |
| 2026-04-21 13:58 | -7.28071 | 110.75064 | 31295 ft | 383 kts | 1° |
| 2026-04-21 13:59 | -7.25440 | 110.75108 | 31981 ft | 372 kts | 1° |
| 2026-04-21 13:59 | -7.22912 | 110.75470 | 32445 ft | 368 kts | 20° |
| 2026-04-21 13:59 | -7.20664 | 110.76666 | 32349 ft | 379 kts | 40° |
| 2026-04-21 13:59 | -7.18866 | 110.78662 | 32261 ft | 390 kts | 58° |
| 2026-04-21 14:00 | -7.17751 | 110.81172 | 32347 ft | 397 kts | 71° |
| 2026-04-21 14:00 | -7.16915 | 110.83846 | 32419 ft | 404 kts | 72° |
| 2026-04-21 14:00 | -7.15304 | 110.89368 | 32546 ft | 418 kts | 73° |
| 2026-04-21 14:01 | -7.13618 | 110.95072 | 32661 ft | 431 kts | 72° |
| 2026-04-21 14:01 | -7.11840 | 111.00940 | 32764 ft | 443 kts | 72° |
| 2026-04-21 14:02 | -7.10317 | 111.05922 | 32838 ft | 452 kts | 72° |
| 2026-04-21 14:03 | -7.07181 | 111.16167 | 33137 ft | 464 kts | 72° |
| 2026-04-21 14:03 | -7.06540 | 111.18263 | 33318 ft | 464 kts | 72° |
| 2026-04-21 14:03 | -7.05285 | 111.22361 | 33757 ft | 460 kts | 72° |
| 2026-04-21 14:03 | -7.04343 | 111.25438 | 34036 ft | 459 kts | 72° |
| 2026-04-21 14:04 | -7.03402 | 111.28513 | 34233 ft | 459 kts | 72° |
| 2026-04-21 14:04 | -7.02779 | 111.30547 | 34364 ft | 459 kts | 72° |
| 2026-04-21 14:04 | -7.01840 | 111.33618 | 34577 ft | 459 kts | 73° |
| 2026-04-21 14:04 | -7.01243 | 111.36785 | 34507 ft | 461 kts | 88° |
| 2026-04-21 14:05 | -7.01429 | 111.39994 | 34516 ft | 461 kts | 99° |
| 2026-04-21 14:05 | -7.02290 | 111.43076 | 34800 ft | 452 kts | 111° |
| 2026-04-21 14:05 | -7.03492 | 111.46009 | 34827 ft | 456 kts | 112° |
| 2026-04-21 14:06 | -7.05970 | 111.51895 | 34854 ft | 462 kts | 112° |
| 2026-04-21 14:06 | -7.08463 | 111.57880 | 34862 ft | 465 kts | 111° |
| 2026-04-21 14:07 | -7.10935 | 111.63907 | 34860 ft | 466 kts | 111° |
| 2026-04-21 14:07 | -7.13400 | 111.69962 | 34857 ft | 467 kts | 111° |
| 2026-04-21 14:08 | -7.15865 | 111.76022 | 34855 ft | 466 kts | 111° |
| 2026-04-21 14:08 | -7.18323 | 111.82065 | 34859 ft | 465 kts | 111° |
| 2026-04-21 14:09 | -7.20771 | 111.88084 | 34855 ft | 463 kts | 111° |
| 2026-04-21 14:09 | -7.23209 | 111.94082 | 34857 ft | 462 kts | 111° |
| 2026-04-21 14:10 | -7.25626 | 112.00029 | 34860 ft | 461 kts | 111° |
| 2026-04-21 14:10 | -7.28049 | 112.05995 | 34857 ft | 459 kts | 111° |
| 2026-04-21 14:11 | -7.30468 | 112.11952 | 34860 ft | 459 kts | 111° |
| 2026-04-21 14:11 | -7.32881 | 112.17899 | 34866 ft | 459 kts | 111° |
| 2026-04-21 14:12 | -7.35294 | 112.23848 | 34865 ft | 459 kts | 111° |
| 2026-04-21 14:12 | -7.37714 | 112.29814 | 34867 ft | 460 kts | 111° |
| 2026-04-21 14:13 | -7.40116 | 112.35742 | 34871 ft | 461 kts | 111° |
| 2026-04-21 14:13 | -7.42539 | 112.41722 | 34881 ft | 461 kts | 111° |
| 2026-04-21 14:14 | -7.44969 | 112.47722 | 34879 ft | 462 kts | 111° |
| 2026-04-21 14:14 | -7.47400 | 112.53728 | 34883 ft | 463 kts | 111° |
| 2026-04-21 14:15 | -7.49832 | 112.59739 | 34883 ft | 463 kts | 111° |
| 2026-04-21 14:15 | -7.52267 | 112.65758 | 34885 ft | 464 kts | 111° |
| 2026-04-21 14:16 | -7.54699 | 112.71776 | 34886 ft | 464 kts | 111° |
| 2026-04-21 14:16 | -7.57138 | 112.77812 | 34890 ft | 464 kts | 111° |
| 2026-04-21 14:17 | -7.59570 | 112.83833 | 34886 ft | 464 kts | 111° |
| 2026-04-21 14:17 | -7.61983 | 112.89810 | 34888 ft | 463 kts | 111° |
| 2026-04-21 14:18 | -7.64415 | 112.95839 | 34891 ft | 463 kts | 111° |
| 2026-04-21 14:18 | -7.66846 | 113.01866 | 34894 ft | 463 kts | 111° |
| 2026-04-21 14:19 | -7.69271 | 113.07881 | 34894 ft | 463 kts | 111° |
| 2026-04-21 14:19 | -7.71699 | 113.13905 | 34898 ft | 463 kts | 111° |
| 2026-04-21 14:20 | -7.74111 | 113.19896 | 34895 ft | 463 kts | 111° |
| 2026-04-21 14:20 | -7.76533 | 113.25912 | 34900 ft | 463 kts | 111° |
| 2026-04-21 14:21 | -7.78955 | 113.31930 | 34899 ft | 463 kts | 111° |
| 2026-04-21 14:21 | -7.81374 | 113.37945 | 34904 ft | 463 kts | 111° |
| 2026-04-21 14:22 | -7.83776 | 113.43920 | 34909 ft | 463 kts | 111° |
| 2026-04-21 14:22 | -7.86192 | 113.49933 | 34911 ft | 463 kts | 111° |
| 2026-04-21 14:23 | -7.88610 | 113.55953 | 34916 ft | 463 kts | 111° |
| 2026-04-21 14:23 | -7.91031 | 113.61983 | 34917 ft | 463 kts | 111° |
| 2026-04-21 14:24 | -7.93450 | 113.68012 | 34921 ft | 464 kts | 111° |
| 2026-04-21 14:24 | -7.95869 | 113.74046 | 34922 ft | 464 kts | 111° |
| 2026-04-21 14:25 | -7.98272 | 113.80041 | 34928 ft | 464 kts | 111° |
| 2026-04-21 14:25 | -8.00692 | 113.86082 | 34930 ft | 464 kts | 111° |
| 2026-04-21 14:26 | -8.03085 | 113.92149 | 34457 ft | 472 kts | 110° |
| 2026-04-21 14:26 | -8.04191 | 113.95257 | 33979 ft | 468 kts | 109° |
| 2026-04-21 14:26 | -8.05251 | 113.98357 | 33359 ft | 466 kts | 108° |
| 2026-04-21 14:26 | -8.06297 | 114.01446 | 32828 ft | 463 kts | 108° |
| 2026-04-21 14:27 | -8.07343 | 114.04516 | 32292 ft | 461 kts | 109° |
| 2026-04-21 14:27 | -8.08379 | 114.07528 | 31769 ft | 457 kts | 109° |
| 2026-04-21 14:27 | -8.09417 | 114.10521 | 31238 ft | 447 kts | 109° |
| 2026-04-21 14:27 | -8.10439 | 114.13453 | 30744 ft | 438 kts | 109° |
| 2026-04-21 14:28 | -8.11443 | 114.16327 | 30242 ft | 430 kts | 109° |
| 2026-04-21 14:28 | -8.12432 | 114.19156 | 29705 ft | 423 kts | 110° |
| 2026-04-21 14:28 | -8.13401 | 114.21931 | 29179 ft | 414 kts | 109° |
| 2026-04-21 14:28 | -8.14351 | 114.24650 | 28699 ft | 410 kts | 110° |
| 2026-04-21 14:29 | -8.15304 | 114.27381 | 28247 ft | 415 kts | 109° |
| 2026-04-21 14:29 | -8.16256 | 114.30109 | 27770 ft | 417 kts | 109° |
| 2026-04-21 14:29 | -8.17218 | 114.32867 | 27289 ft | 416 kts | 109° |
| 2026-04-21 14:29 | -8.18177 | 114.35619 | 26814 ft | 413 kts | 109° |
| 2026-04-21 14:30 | -8.19128 | 114.38347 | 26348 ft | 412 kts | 109° |
| 2026-04-21 14:30 | -8.20078 | 114.41075 | 25877 ft | 411 kts | 109° |
| 2026-04-21 14:30 | -8.21025 | 114.43793 | 25394 ft | 409 kts | 109° |
| 2026-04-21 14:30 | -8.21960 | 114.46480 | 24912 ft | 402 kts | 109° |
| 2026-04-21 14:31 | -8.22887 | 114.49140 | 24460 ft | 399 kts | 109° |
| 2026-04-21 14:31 | -8.23809 | 114.51783 | 24002 ft | 399 kts | 110° |
| 2026-04-21 14:31 | -8.25066 | 114.54226 | 23536 ft | 398 kts | 128° |
| 2026-04-21 14:31 | -8.26971 | 114.56237 | 23043 ft | 393 kts | 137° |
| 2026-04-21 14:32 | -8.28970 | 114.58066 | 22551 ft | 383 kts | 138° |
| 2026-04-21 14:32 | -8.30945 | 114.59836 | 22106 ft | 373 kts | 138° |
| 2026-04-21 14:32 | -8.32857 | 114.61560 | 21680 ft | 366 kts | 137° |
| 2026-04-21 14:32 | -8.34732 | 114.63268 | 21266 ft | 359 kts | 137° |
| 2026-04-21 14:33 | -8.36587 | 114.64973 | 20874 ft | 363 kts | 137° |
| 2026-04-21 14:33 | -8.38467 | 114.66712 | 20458 ft | 369 kts | 136° |
| 2026-04-21 14:33 | -8.40362 | 114.68468 | 20028 ft | 370 kts | 136° |
| 2026-04-21 14:33 | -8.42237 | 114.70207 | 19604 ft | 371 kts | 136° |
| 2026-04-21 14:34 | -8.44137 | 114.71968 | 19170 ft | 368 kts | 136° |
| 2026-04-21 14:34 | -8.45990 | 114.73704 | 18749 ft | 358 kts | 133° |
| 2026-04-21 14:34 | -8.47368 | 114.75762 | 18352 ft | 353 kts | 112° |
| 2026-04-21 14:34 | -8.48011 | 114.78137 | 17893 ft | 352 kts | 95° |
| 2026-04-21 14:35 | -8.48100 | 114.80599 | 17502 ft | 349 kts | 90° |
| 2026-04-21 14:35 | -8.48088 | 114.83045 | 17078 ft | 347 kts | 89° |
| 2026-04-21 14:35 | -8.48056 | 114.85483 | 16674 ft | 346 kts | 89° |
| 2026-04-21 14:35 | -8.48031 | 114.87874 | 16281 ft | 344 kts | 89° |
| 2026-04-21 14:36 | -8.48016 | 114.90282 | 15889 ft | 342 kts | 89° |
| 2026-04-21 14:36 | -8.48011 | 114.92677 | 15501 ft | 340 kts | 89° |
| 2026-04-21 14:36 | -8.48011 | 114.95061 | 15115 ft | 337 kts | 89° |
| 2026-04-21 14:36 | -8.48013 | 114.97429 | 14731 ft | 336 kts | 89° |
| 2026-04-21 14:37 | -8.48016 | 114.99783 | 14339 ft | 335 kts | 89° |
| 2026-04-21 14:37 | -8.48020 | 115.02136 | 13943 ft | 332 kts | 89° |
| 2026-04-21 14:37 | -8.48024 | 115.04435 | 13549 ft | 323 kts | 89° |
| 2026-04-21 14:37 | -8.48027 | 115.06700 | 13161 ft | 321 kts | 89° |
| 2026-04-21 14:38 | -8.48030 | 115.08948 | 12774 ft | 320 kts | 89° |
| 2026-04-21 14:38 | -8.48034 | 115.11186 | 12404 ft | 318 kts | 89° |
| 2026-04-21 14:38 | -8.48039 | 115.13412 | 12086 ft | 315 kts | 89° |
| 2026-04-21 14:38 | -8.48044 | 115.15607 | 11779 ft | 311 kts | 89° |
| 2026-04-21 14:39 | -8.48048 | 115.17785 | 11428 ft | 310 kts | 89° |
| 2026-04-21 14:39 | -8.48052 | 115.19963 | 11019 ft | 310 kts | 89° |
| 2026-04-21 14:39 | -8.48056 | 115.22118 | 10661 ft | 302 kts | 89° |
| 2026-04-21 14:39 | -8.48060 | 115.24207 | 10319 ft | 293 kts | 89° |
| 2026-04-21 14:40 | -8.48064 | 115.26240 | 9997 ft | 286 kts | 89° |
| 2026-04-21 14:40 | -8.48067 | 115.28222 | 9681 ft | 280 kts | 89° |
| 2026-04-21 14:40 | -8.48070 | 115.30143 | 9345 ft | 274 kts | 89° |
| 2026-04-21 14:40 | -8.48073 | 115.32066 | 9035 ft | 273 kts | 89° |
| 2026-04-21 14:41 | -8.48076 | 115.33983 | 8723 ft | 272 kts | 89° |
| 2026-04-21 14:41 | -8.48092 | 115.35890 | 8420 ft | 272 kts | 94° |
| 2026-04-21 14:41 | -8.48643 | 115.37700 | 8077 ft | 270 kts | 120° |
| 2026-04-21 14:41 | -8.49930 | 115.39065 | 7783 ft | 271 kts | 145° |
| 2026-04-21 14:42 | -8.51654 | 115.39781 | 7609 ft | 263 kts | 167° |
| 2026-04-21 14:42 | -8.53416 | 115.39903 | 7484 ft | 245 kts | 177° |
| 2026-04-21 14:42 | -8.55070 | 115.39893 | 7346 ft | 230 kts | 178° |
| 2026-04-21 14:42 | -8.56714 | 115.39875 | 6768 ft | 240 kts | 179° |
| 2026-04-21 14:43 | -8.58376 | 115.39859 | 6379 ft | 237 kts | 178° |
| 2026-04-21 14:43 | -8.59979 | 115.39848 | 6068 ft | 230 kts | 178° |
| 2026-04-21 14:43 | -8.61553 | 115.39841 | 5791 ft | 222 kts | 178° |
| 2026-04-21 14:43 | -8.63074 | 115.39837 | 5528 ft | 217 kts | 178° |
| 2026-04-21 14:44 | -8.64583 | 115.39835 | 5307 ft | 217 kts | 178° |
| 2026-04-21 14:44 | -8.66094 | 115.39834 | 4990 ft | 218 kts | 178° |
| 2026-04-21 14:44 | -8.67612 | 115.39834 | 4686 ft | 218 kts | 178° |
| 2026-04-21 14:44 | -8.69130 | 115.39834 | 4373 ft | 217 kts | 178° |
| 2026-04-21 14:45 | -8.70636 | 115.39833 | 4078 ft | 216 kts | 178° |
| 2026-04-21 14:45 | -8.72166 | 115.39762 | 3577 ft | 226 kts | 192° |
| 2026-04-21 14:45 | -8.73513 | 115.38943 | 3094 ft | 233 kts | 232° |
| 2026-04-21 14:45 | -8.74045 | 115.37458 | 2874 ft | 220 kts | 269° |
| 2026-04-21 14:46 | -8.74071 | 115.35942 | 2700 ft | 211 kts | 270° |
| 2026-04-21 14:46 | -8.74125 | 115.34532 | 2555 ft | 193 kts | 269° |
| 2026-04-21 14:46 | -8.74180 | 115.33225 | 2502 ft | 181 kts | 270° |
| 2026-04-21 14:46 | -8.74230 | 115.31986 | 2511 ft | 172 kts | 270° |
| 2026-04-21 14:47 | -8.74277 | 115.30790 | 2385 ft | 169 kts | 270° |
| 2026-04-21 14:47 | -8.74324 | 115.29595 | 2175 ft | 170 kts | 270° |
| 2026-04-21 14:47 | -8.74372 | 115.28389 | 1947 ft | 171 kts | 269° |
| 2026-04-21 14:47 | -8.74421 | 115.27192 | 1734 ft | 170 kts | 269° |
| 2026-04-21 14:48 | -8.74469 | 115.25986 | 1511 ft | 172 kts | 269° |
| 2026-04-21 14:48 | -8.74518 | 115.24780 | 1288 ft | 171 kts | 269° |
| 2026-04-21 14:48 | -8.74566 | 115.23591 | 1063 ft | 168 kts | 269° |
| 2026-04-21 14:48 | -8.74613 | 115.22423 | 859 ft | 166 kts | 269° |
| 2026-04-21 14:49 | -8.74659 | 115.21287 | 666 ft | 162 kts | 268° |
| 2026-04-21 14:49 | -8.74704 | 115.20161 | 463 ft | 159 kts | 268° |
| 2026-04-21 14:49 | -8.74754 | 115.19048 | 297 ft | 158 kts | 268° |
| 2026-04-21 14:49 | -8.74793 | 115.17970 | 54 ft | 149 kts | 269° |
| 2026-04-21 14:50 | -8.74814 | 115.17295 | 27 ft | 133 kts | 269° |
| 2026-04-21 14:50 | -8.74861 | 115.16276 | 27 ft | 87 kts | 267° |
| 2026-04-21 14:50 | -8.74858 | 115.15974 | 28 ft | 27 kts | 280° |
| 2026-04-21 14:50 | -8.74792 | 115.15809 | 30 ft | 16 kts | 298° |
| 2026-04-21 14:51 | -8.74728 | 115.15802 | 32 ft | 12 kts | 58° |
| 2026-04-21 14:51 | -8.74710 | 115.15908 | 32 ft | 18 kts | 84° |
| 2026-04-21 14:51 | -8.74708 | 115.15988 | 32 ft | 15 kts | 90° |
| 2026-04-21 14:51 | -8.74708 | 115.16013 | 32 ft | 0 kts | 90° |
| 2026-04-21 14:52 | -8.74708 | 115.16015 | 32 ft | 1 kts | 90° |
| 2026-04-21 14:52 | -8.74707 | 115.16050 | 32 ft | 7 kts | 88° |
| 2026-04-21 14:52 | -8.74705 | 115.16097 | 32 ft | 13 kts | 88° |
| 2026-04-21 14:52 | -8.74701 | 115.16199 | 32 ft | 15 kts | 88° |
| 2026-04-21 14:53 | -8.74696 | 115.16307 | 32 ft | 15 kts | 89° |
| 2026-04-21 14:53 | -8.74688 | 115.16344 | 32 ft | 3 kts | 38° |
| 2026-04-21 14:53 | -8.74667 | 115.16344 | 32 ft | 3 kts | 356° |
| 2026-04-21 14:53 | -8.74647 | 115.16344 | 32 ft | 3 kts | 358° |
| 2026-04-21 14:54 | -8.74627 | 115.16343 | 32 ft | 3 kts | 358° |
| 2026-04-21 14:54 | -8.74608 | 115.16342 | 30 ft | 3 kts | 358° |
| 2026-04-21 14:54 | -8.74590 | 115.16341 | 32 ft | 3 kts | 358° |
| 2026-04-21 14:54 | -8.74574 | 115.16341 | 32 ft | 0 kts | 358° |
| 2026-04-21 14:55 | -8.74570 | 115.16340 | 32 ft | 0 kts | 358° |
| 2026-04-21 14:56 | -8.74573 | 115.16341 | 32 ft | 1 kts | 358° |
| 2026-04-21 14:56 | -8.74568 | 115.16340 | 32 ft | 0 kts | 358° |